Time;durP1;ratioP1;P1;durP2;ratioP2;P2;SDS_P1;SDS_P2;PMS_P1;PMS_P2;Temp;Humidity;BMP_temperature;BMP_pressure;BME280_temperature;BME280_humidity;BME280_pressure;Samples;Min_cycle;Max_cycle;Signal;HPM_P1;HPM_P2
2022/06/10 00:01:35;;;;;;;16.83;3.08;;;20.40;59.50;;;;;;7367434;19;22055;-78
2022/06/10 00:04:04;;;;;;;11.88;3.58;;;20.40;59.60;;;;;;7369024;19;20018;-78
2022/06/10 00:06:34;;;;;;;8.52;2.75;;;20.40;59.70;;;;;;7369705;19;20093;-78
2022/06/10 00:09:05;;;;;;;14.07;2.58;;;20.40;59.70;;;;;;7368260;19;20049;-78
2022/06/10 00:11:35;;;;;;;10.18;2.75;;;20.40;59.70;;;;;;7386885;19;20028;-79
2022/06/10 00:14:04;;;;;;;10.48;2.75;;;20.40;59.80;;;;;;7393032;19;20061;-78
2022/06/10 00:16:37;;;;;;;14.85;2.50;;;20.30;59.70;;;;;;7371297;19;20122;-78
2022/06/10 00:19:07;;;;;;;10.43;2.75;;;20.30;59.80;;;;;;7367860;19;20631;-78
2022/06/10 00:24:48;;;;;;;22.30;3.22;;;20.20;60.10;;;;;;7366066;19;20105;-78
2022/06/10 00:27:18;;;;;;;10.30;2.90;;;20.20;59.90;;;;;;7369803;19;20014;-78
2022/06/10 00:29:50;;;;;;;9.05;2.20;;;20.20;60.00;;;;;;7371524;19;20428;-77
2022/06/10 00:32:22;;;;;;;10.48;2.67;;;20.20;60.00;;;;;;7394255;19;20022;-77
2022/06/10 00:34:52;;;;;;;13.98;3.03;;;20.10;60.00;;;;;;7370839;19;20018;-77
2022/06/10 00:37:21;;;;;;;12.27;2.42;;;20.10;60.00;;;;;;7370977;19;20010;-77
2022/06/10 00:39:52;;;;;;;13.75;2.47;;;20.10;60.00;;;;;;7368405;19;20015;-77
2022/06/10 00:42:22;;;;;;;12.77;2.60;;;20.10;60.00;;;;;;7368782;19;20010;-78
2022/06/10 00:44:54;;;;;;;12.30;2.80;;;20.20;60.00;;;;;;7370166;19;20019;-77
2022/06/10 00:47:38;;;;;;;9.80;2.88;;;20.20;59.90;;;;;;7391137;19;20035;-77
2022/06/10 00:50:22;;;;;;;8.05;2.63;;;20.20;59.90;;;;;;7372515;19;20018;-78
2022/06/10 00:52:57;;;;;;;12.25;2.95;;;20.20;59.70;;;;;;7372033;19;20057;-78
2022/06/10 00:55:31;;;;;;;9.00;2.60;;;20.20;59.60;;;;;;7371072;19;20037;-78
2022/06/10 00:58:05;;;;;;;8.05;2.83;;;20.20;59.60;;;;;;7369339;19;20064;-78
2022/06/10 01:00:36;;;;;;;9.07;2.83;;;20.20;59.50;;;;;;7364840;19;20038;-78
2022/06/10 01:03:08;;;;;;;8.70;2.70;;;20.20;59.60;;;;;;7371165;19;20019;-78
2022/06/10 01:05:39;;;;;;;12.75;3.00;;;20.20;59.50;;;;;;7369452;19;20022;-79
2022/06/10 01:08:14;;;;;;;14.57;2.47;;;20.20;59.60;;;;;;7393059;19;20022;-77
2022/06/10 01:10:51;;;;;;;7.95;2.60;;;20.20;59.70;;;;;;7369637;19;20034;-78
2022/06/10 01:13:32;;;;;;;8.40;2.72;;;20.20;59.70;;;;;;7369168;19;20037;-77
2022/06/10 01:16:09;;;;;;;14.00;3.43;;;20.20;59.50;;;;;;7371763;19;20010;-77
2022/06/10 01:18:53;;;;;;;8.98;2.60;;;20.20;59.50;;;;;;7370967;19;20010;-78
2022/06/10 01:21:57;;;;;;;9.50;2.63;;;20.20;59.60;;;;;;7371986;19;20480;-77
2022/06/10 01:24:52;;;;;;;11.98;2.90;;;20.20;59.70;;;;;;7370058;19;20006;-77
2022/06/10 01:27:57;;;;;;;9.07;2.58;;;20.20;59.90;;;;;;7369729;19;20564;-77
2022/06/10 01:30:52;;;;;;;7.32;2.97;;;20.20;59.90;;;;;;7372873;19;20746;-78
2022/06/10 01:33:29;;;;;;;7.72;2.78;;;20.20;59.80;;;;;;7372178;19;20054;-77
2022/06/10 01:36:04;;;;;;;14.70;3.58;;;20.20;59.90;;;;;;7370886;19;20010;-78
2022/06/10 01:38:42;;;;;;;10.98;3.13;;;20.20;60.00;;;;;;7391328;19;20026;-77
2022/06/10 01:41:17;;;;;;;12.90;3.05;;;20.20;60.00;;;;;;7372916;19;20038;-77
2022/06/10 01:43:59;;;;;;;8.82;2.70;;;20.10;60.10;;;;;;7380312;19;20015;-78
2022/06/10 01:46:35;;;;;;;8.80;3.15;;;20.00;60.40;;;;;;7379258;19;20058;-78
2022/06/10 01:49:13;;;;;;;9.23;2.88;;;20.00;60.40;;;;;;7377821;19;20022;-77
2022/06/10 01:51:51;;;;;;;13.40;2.90;;;19.90;60.70;;;;;;7373613;19;20014;-78
2022/06/10 01:54:34;;;;;;;11.25;2.75;;;19.90;60.80;;;;;;7372477;19;20457;-78
2022/06/10 01:57:08;;;;;;;8.13;2.70;;;19.80;60.90;;;;;;7373052;19;20089;-78
2022/06/10 01:59:41;;;;;;;8.25;2.88;;;19.80;61.00;;;;;;7371049;19;20430;-78
2022/06/10 02:02:19;;;;;;;9.50;2.53;;;19.80;61.10;;;;;;7394608;19;20017;-78
2022/06/10 02:04:54;;;;;;;6.78;2.47;;;19.80;60.80;;;;;;7371436;19;20026;-78
2022/06/10 02:07:30;;;;;;;9.57;2.97;;;19.80;60.80;;;;;;7371080;19;20030;-78
2022/06/10 02:10:04;;;;;;;7.65;2.20;;;19.70;60.90;;;;;;7370503;19;20727;-78
2022/06/10 02:12:38;;;;;;;10.90;2.78;;;19.70;61.00;;;;;;7375394;19;20014;-78
2022/06/10 02:15:11;;;;;;;9.30;2.78;;;19.70;61.00;;;;;;7373987;19;20010;-78
2022/06/10 02:17:50;;;;;;;9.93;2.72;;;19.70;61.20;;;;;;7375072;19;20034;-77
2022/06/10 02:20:25;;;;;;;6.03;2.50;;;19.60;61.90;;;;;;7399095;19;20035;-77
2022/06/10 02:22:58;;;;;;;11.27;2.85;;;19.70;61.00;;;;;;7375820;19;20425;-77
2022/06/10 02:25:30;;;;;;;11.93;2.38;;;19.70;60.70;;;;;;7376008;19;20015;-77
2022/06/10 02:28:10;;;;;;;10.85;2.60;;;19.70;60.70;;;;;;7377423;19;20018;-78
2022/06/10 02:30:44;;;;;;;10.15;3.10;;;19.70;60.80;;;;;;7372113;19;20026;-77
2022/06/10 02:33:16;;;;;;;13.70;3.03;;;19.60;60.60;;;;;;7373129;19;20021;-78
2022/06/10 02:35:53;;;;;;;10.60;2.60;;;19.60;60.90;;;;;;7373950;19;20027;-77
2022/06/10 02:38:33;;;;;;;9.55;2.63;;;19.50;60.90;;;;;;7394075;19;20015;-77
2022/06/10 02:41:09;;;;;;;9.23;2.95;;;19.50;60.90;;;;;;7376473;19;20015;-77
2022/06/10 02:43:45;;;;;;;7.70;2.63;;;19.50;60.90;;;;;;7374361;19;20011;-78
2022/06/10 02:46:20;;;;;;;12.45;3.38;;;19.50;60.90;;;;;;7373996;19;20017;-77
2022/06/10 02:48:59;;;;;;;10.20;2.83;;;19.50;60.90;;;;;;7373809;19;20085;-77
2022/06/10 02:51:29;;;;;;;18.20;2.90;;;19.50;61.10;;;;;;7374184;19;20455;-77
2022/06/10 02:54:00;;;;;;;8.68;3.08;;;19.40;61.20;;;;;;7372226;19;20083;-77
2022/06/10 02:56:31;;;;;;;13.05;3.35;;;19.40;61.20;;;;;;7397948;19;20030;-77
2022/06/10 03:01:55;;;;;;;7.50;2.53;;;19.40;61.00;;;;;;7372868;19;20391;-77
2022/06/10 03:04:38;;;;;;;10.00;2.78;;;19.40;60.90;;;;;;7372356;19;20406;-78
2022/06/10 03:07:18;;;;;;;9.90;2.90;;;19.40;61.00;;;;;;7373562;19;20014;-77
2022/06/10 03:10:01;;;;;;;10.77;3.10;;;19.40;61.00;;;;;;7371248;19;20021;-78
2022/06/10 03:12:42;;;;;;;5.95;2.53;;;19.40;61.10;;;;;;7371921;19;20018;-77
2022/06/10 03:15:27;;;;;;;9.63;2.55;;;19.40;61.10;;;;;;7374324;19;20039;-77
2022/06/10 03:18:04;;;;;;;9.82;3.10;;;19.40;61.00;;;;;;7370880;19;20031;-77
2022/06/10 03:20:44;;;;;;;11.75;2.50;;;19.40;60.90;;;;;;7398052;19;20030;-77
2022/06/10 03:23:23;;;;;;;9.65;2.83;;;19.40;60.80;;;;;;7373102;19;20046;-77
2022/06/10 03:25:57;;;;;;;9.68;2.83;;;19.40;60.80;;;;;;7376147;19;20030;-78
2022/06/10 03:28:32;;;;;;;12.85;3.22;;;19.40;60.60;;;;;;7375049;19;20206;-77
2022/06/10 03:31:09;;;;;;;12.82;3.35;;;19.40;60.60;;;;;;7373452;19;20342;-78
2022/06/10 03:33:41;;;;;;;9.13;2.50;;;19.40;60.90;;;;;;7377505;19;20170;-78
2022/06/10 03:36:18;;;;;;;7.35;2.63;;;19.40;61.00;;;;;;7374411;19;20058;-77
2022/06/10 03:38:51;;;;;;;7.38;3.10;;;19.30;61.10;;;;;;7378022;19;20011;-77
2022/06/10 03:41:24;;;;;;;13.27;2.97;;;19.30;61.10;;;;;;7404693;19;20445;-77
2022/06/10 03:43:58;;;;;;;11.10;3.33;;;19.20;61.30;;;;;;7385212;19;20019;-77
2022/06/10 03:46:33;;;;;;;9.05;3.00;;;19.30;61.30;;;;;;7378590;19;20010;-78
2022/06/10 03:49:11;;;;;;;9.93;3.58;;;19.20;61.30;;;;;;7378899;19;20031;-77
2022/06/10 03:51:45;;;;;;;11.13;3.38;;;19.20;61.30;;;;;;7377017;19;20017;-78
2022/06/10 03:54:21;;;;;;;9.77;2.92;;;19.20;61.30;;;;;;7376556;19;20099;-78
2022/06/10 03:56:52;;;;;;;8.65;2.85;;;19.20;61.30;;;;;;7374029;19;20023;-78
2022/06/10 03:59:22;;;;;;;10.98;2.67;;;19.20;61.20;;;;;;7395966;19;20054;-78
2022/06/10 04:01:56;;;;;;;8.57;2.65;;;19.20;61.20;;;;;;7374416;19;20019;-78
2022/06/10 04:04:27;;;;;;;11.65;3.05;;;19.20;61.30;;;;;;7373083;19;20002;-77
2022/06/10 04:07:05;;;;;;;8.90;3.00;;;19.20;61.50;;;;;;7372320;19;20031;-78
2022/06/10 04:09:36;;;;;;;12.07;3.22;;;19.20;61.60;;;;;;7375603;19;20447;-78
2022/06/10 04:12:06;;;;;;;9.77;2.90;;;19.20;61.30;;;;;;7370455;19;20032;-78
2022/06/10 04:14:37;;;;;;;8.55;2.80;;;19.30;61.30;;;;;;7380583;19;20039;-78
2022/06/10 04:17:07;;;;;;;11.18;3.08;;;19.20;61.30;;;;;;7391512;19;20031;-78
2022/06/10 04:19:37;;;;;;;10.05;3.10;;;19.20;61.40;;;;;;7371612;19;20010;-77
2022/06/10 04:22:13;;;;;;;13.32;3.20;;;19.20;61.50;;;;;;7368847;19;20022;-77
2022/06/10 04:24:43;;;;;;;10.65;3.10;;;19.20;61.70;;;;;;7370299;19;20010;-77
2022/06/10 04:27:13;;;;;;;11.15;2.83;;;19.20;61.50;;;;;;7373456;19;20049;-78
2022/06/10 04:29:43;;;;;;;10.60;2.88;;;19.20;61.30;;;;;;7370255;19;20627;-77
2022/06/10 04:32:15;;;;;;;14.43;3.13;;;19.30;61.20;;;;;;7393873;19;20010;-78
2022/06/10 04:34:48;;;;;;;8.18;2.95;;;19.30;61.10;;;;;;7373792;19;20130;-78
2022/06/10 04:37:22;;;;;;;10.05;2.88;;;19.30;61.10;;;;;;7372331;19;20743;-78
2022/06/10 04:39:53;;;;;;;6.22;2.70;;;19.40;61.20;;;;;;7371575;19;20441;-78
2022/06/10 04:42:22;;;;;;;11.05;2.88;;;19.40;61.30;;;;;;7371368;19;20010;-79
2022/06/10 04:44:55;;;;;;;10.52;2.92;;;19.40;61.40;;;;;;7369899;19;20053;-78
2022/06/10 04:47:26;;;;;;;9.15;3.45;;;19.40;61.50;;;;;;7392276;19;20022;-77
2022/06/10 04:49:59;;;;;;;9.65;2.72;;;19.50;61.60;;;;;;7370942;19;20022;-77
2022/06/10 04:52:34;;;;;;;13.77;3.58;;;19.50;61.80;;;;;;7370104;19;20014;-77
2022/06/10 04:55:10;;;;;;;8.85;3.30;;;19.60;61.60;;;;;;7371274;19;20018;-77
2022/06/10 04:57:40;;;;;;;6.78;2.83;;;19.60;61.50;;;;;;7370071;19;20039;-77
2022/06/10 05:00:16;;;;;;;9.20;3.30;;;19.60;61.70;;;;;;7369091;19;20128;-77
2022/06/10 05:02:45;;;;;;;8.93;2.92;;;19.70;61.70;;;;;;7368878;19;20424;-78
2022/06/10 05:05:33;;;;;;;9.07;3.03;;;19.70;61.70;;;;;;7391547;19;20113;-78
2022/06/10 05:08:10;;;;;;;8.70;3.17;;;19.70;61.90;;;;;;7370879;19;20011;-78
2022/06/10 05:10:42;;;;;;;8.40;2.95;;;19.70;62.00;;;;;;7369670;19;20039;-77
2022/06/10 05:13:16;;;;;;;8.48;2.90;;;19.80;62.20;;;;;;7367397;19;20028;-77
2022/06/10 05:15:48;;;;;;;9.90;3.22;;;19.70;62.20;;;;;;7369895;19;20026;-78
2022/06/10 05:18:19;;;;;;;9.50;3.35;;;19.80;62.40;;;;;;7368951;19;20020;-77
2022/06/10 05:20:57;;;;;;;9.90;2.95;;;19.80;62.20;;;;;;7367722;19;20127;-77
2022/06/10 05:23:32;;;;;;;7.60;3.50;;;19.90;62.30;;;;;;7391637;19;20092;-77
2022/06/10 05:26:03;;;;;;;10.05;3.72;;;19.90;62.30;;;;;;7369608;19;20748;-78
2022/06/10 05:28:33;;;;;;;11.27;3.15;;;19.90;62.50;;;;;;7366939;19;20018;-78
2022/06/10 05:31:03;;;;;;;14.05;3.53;;;19.90;62.70;;;;;;7369389;19;20019;-78
2022/06/10 05:34:44;;;;;;;8.98;3.10;;;19.90;62.90;;;;;;7369658;19;20388;-79
2022/06/10 05:36:33;;;;;;;6.78;3.20;;;19.90;62.90;;;;;;7369797;19;20014;-77
2022/06/10 05:39:08;;;;;;;7.30;2.90;;;20.00;63.10;;;;;;7367152;19;20799;-78
2022/06/10 05:44:27;;;;;;;8.38;2.70;;;20.10;62.90;;;;;;7392253;19;20018;-78
2022/06/10 05:47:00;;;;;;;7.55;2.85;;;20.10;62.50;;;;;;7367077;19;20010;-77
2022/06/10 05:49:32;;;;;;;12.52;3.00;;;20.20;62.30;;;;;;7370087;19;20017;-78
2022/06/10 05:52:03;;;;;;;11.05;2.83;;;20.10;62.50;;;;;;7367427;19;20029;-78
2022/06/10 05:54:38;;;;;;;17.15;3.28;;;20.10;62.50;;;;;;7369694;19;20022;-78
2022/06/10 05:57:09;;;;;;;12.48;2.80;;;20.10;62.30;;;;;;7367136;19;20429;-78
2022/06/10 05:59:41;;;;;;;10.82;2.70;;;20.20;62.30;;;;;;7370345;19;20023;-78
2022/06/10 06:02:14;;;;;;;8.52;2.58;;;20.20;62.30;;;;;;7387224;19;20051;-79
2022/06/10 06:04:45;;;;;;;6.00;2.40;;;20.30;62.30;;;;;;7364927;19;20063;-78
2022/06/10 06:07:18;;;;;;;;;;;20.30;62.30;;;;;;7368452;19;20011;-78
2022/06/10 06:09:51;;;;;;;13.73;2.53;;;20.40;62.40;;;;;;7367286;19;19918;-78
2022/06/10 06:12:37;;;;;;;10.10;2.75;;;20.40;62.40;;;;;;7368472;19;20044;-77
2022/06/10 06:15:09;;;;;;;16.02;2.40;;;20.50;62.40;;;;;;7367946;19;20014;-78
2022/06/10 06:17:43;;;;;;;7.80;2.42;;;20.40;61.80;;;;;;7366365;19;20029;-79
2022/06/10 06:20:18;;;;;;;19.98;2.45;;;20.40;61.90;;;;;;7385545;19;20450;-78
2022/06/10 06:22:49;;;;;;;11.88;2.95;;;20.30;61.70;;;;;;7365259;19;20089;-78
2022/06/10 06:25:23;;;;;;;17.23;2.78;;;20.30;62.10;;;;;;7364366;19;20029;-78
2022/06/10 06:27:57;;;;;;;10.48;2.40;;;20.30;62.40;;;;;;7366811;19;20089;-78
2022/06/10 06:30:33;;;;;;;10.43;2.00;;;20.40;62.30;;;;;;7360152;19;20094;-77
2022/06/10 06:33:07;;;;;;;8.38;1.98;;;20.40;62.30;;;;;;7368951;19;20825;-78
2022/06/10 06:35:40;;;;;;;9.70;2.65;;;20.40;62.10;;;;;;7369153;19;20026;-78
2022/06/10 06:38:12;;;;;;;9.70;2.47;;;20.30;62.20;;;;;;7389888;19;20024;-78
2022/06/10 06:40:45;;;;;;;9.75;2.53;;;20.30;62.70;;;;;;7365431;19;20029;-78
2022/06/10 06:43:15;;;;;;;11.15;1.98;;;20.20;63.00;;;;;;7363442;19;20414;-78
2022/06/10 06:45:46;;;;;;;16.45;2.17;;;20.30;62.90;;;;;;7365189;19;20010;-77
2022/06/10 06:48:22;;;;;;;10.77;2.22;;;20.40;62.70;;;;;;7363268;19;20078;-78
2022/06/10 06:50:54;;;;;;;12.15;2.50;;;20.40;62.80;;;;;;7366154;19;20344;-78
2022/06/10 06:53:25;;;;;;;15.00;2.28;;;20.30;62.40;;;;;;7385033;19;20019;-78
2022/06/10 06:56:19;;;;;;;16.77;2.30;;;20.20;63.00;;;;;;7366125;19;20047;-78
2022/06/10 06:58:50;;;;;;;14.00;2.60;;;20.30;63.00;;;;;;7359733;19;20014;-77
2022/06/10 07:01:23;;;;;;;10.57;2.22;;;20.40;62.80;;;;;;7370243;19;20014;-77
2022/06/10 07:03:55;;;;;;;15.27;2.05;;;20.40;62.70;;;;;;7371294;19;20038;-77
2022/06/10 07:06:24;;;;;;;12.32;2.03;;;20.50;62.40;;;;;;7370539;19;20029;-77
2022/06/10 07:08:54;;;;;;;13.35;2.00;;;20.60;62.20;;;;;;7368276;19;20050;-77
2022/06/10 07:11:26;;;;;;;14.90;2.28;;;20.60;62.30;;;;;;7389817;19;20037;-77
2022/06/10 07:13:55;;;;;;;10.77;2.33;;;20.60;62.20;;;;;;7369333;19;20067;-76
2022/06/10 07:16:25;;;;;;;8.02;2.08;;;20.70;62.20;;;;;;7366831;19;20521;-75
2022/06/10 07:18:55;;;;;;;12.32;2.33;;;20.80;62.40;;;;;;7367966;19;20034;-75
2022/06/10 07:21:24;;;;;;;16.02;2.47;;;20.80;62.40;;;;;;7367602;19;20603;-75
2022/06/10 07:23:53;;;;;;;11.43;2.33;;;20.80;62.30;;;;;;7368298;19;20041;-75
2022/06/10 07:26:25;;;;;;;13.20;2.00;;;20.70;62.40;;;;;;7387746;19;20026;-75
2022/06/10 07:28:54;;;;;;;11.25;2.55;;;20.90;62.30;;;;;;7367898;19;20775;-75
2022/06/10 07:31:23;;;;;;;10.27;2.15;;;20.90;61.80;;;;;;7364572;19;20010;-75
2022/06/10 07:33:52;;;;;;;10.45;2.35;;;20.80;62.60;;;;;;7367330;19;20031;-75
2022/06/10 07:36:21;;;;;;;12.65;1.80;;;20.90;62.00;;;;;;7365457;19;20038;-74
2022/06/10 07:38:50;;;;;;;13.55;2.10;;;21.00;61.00;;;;;;7364636;19;20106;-75
2022/06/10 07:44:03;;;;;;;7.70;1.63;;;21.10;59.70;;;;;;7369826;19;20317;-76
2022/06/10 07:46:32;;;;;;;9.93;1.77;;;21.20;59.60;;;;;;7364823;19;20018;-75
2022/06/10 07:49:01;;;;;;;8.43;1.52;;;21.20;59.90;;;;;;7365660;19;20014;-76
2022/06/10 07:51:30;;;;;;;8.70;1.73;;;21.30;59.30;;;;;;7364937;19;20125;-74
2022/06/10 07:53:59;;;;;;;6.72;1.80;;;21.20;59.00;;;;;;7366158;19;20086;-74
2022/06/10 07:56:28;;;;;;;8.93;1.67;;;21.10;59.30;;;;;;7387907;19;20052;-75
2022/06/10 07:58:58;;;;;;;7.35;1.83;;;21.10;59.30;;;;;;7366444;19;20030;-75
2022/06/10 08:01:30;;;;;;;9.15;2.08;;;21.20;59.40;;;;;;7366088;19;20077;-74
2022/06/10 08:03:59;;;;;;;4.75;1.52;;;21.30;59.00;;;;;;7366561;19;20019;-76
2022/06/10 08:06:31;;;;;;;11.00;2.13;;;21.30;59.30;;;;;;7365413;19;20018;-75
2022/06/10 08:09:00;;;;;;;11.55;1.67;;;21.40;58.40;;;;;;7365756;19;20047;-76
2022/06/10 08:11:29;;;;;;;10.05;1.98;;;21.50;58.70;;;;;;7389479;19;20323;-77
2022/06/10 08:13:58;;;;;;;5.55;1.58;;;21.70;58.40;;;;;;7366962;19;20718;-76
2022/06/10 08:16:29;;;;;;;11.13;1.90;;;21.80;58.20;;;;;;7366677;19;20062;-76
2022/06/10 08:18:58;;;;;;;10.07;1.33;;;21.80;57.10;;;;;;7368926;19;20015;-75
2022/06/10 08:24:14;;;;;;;6.57;1.35;;;21.90;56.20;;;;;;7369980;19;20018;-76
2022/06/10 08:26:44;;;;;;;8.52;1.38;;;21.90;56.50;;;;;;7368773;19;20043;-77
2022/06/10 08:29:14;;;;;;;3.80;1.30;;;21.90;55.90;;;;;;7389018;19;20015;-75
2022/06/10 08:31:45;;;;;;;6.30;1.33;;;22.00;55.70;;;;;;7370317;19;20015;-77
2022/06/10 08:34:14;;;;;;;8.30;1.42;;;22.00;55.80;;;;;;7372663;19;20025;-77
2022/06/10 08:36:43;;;;;;;4.22;1.05;;;21.90;56.10;;;;;;7371071;19;20049;-77
2022/06/10 08:39:12;;;;;;;5.38;1.20;;;22.00;55.70;;;;;;7370833;19;20042;-77
2022/06/10 08:42:07;;;;;;;5.55;1.33;;;22.00;55.70;;;;;;7369118;19;20464;-77
2022/06/10 08:44:42;;;;;;;8.50;1.42;;;21.80;55.80;;;;;;7371562;19;20018;-77
2022/06/10 08:47:39;;;;;;;10.20;1.50;;;21.80;56.40;;;;;;7389909;19;20097;-76
2022/06/10 08:50:25;;;;;;;9.45;1.27;;;21.80;56.70;;;;;;7371348;19;20019;-77
2022/06/10 08:53:10;;;;;;;6.50;1.35;;;21.90;55.90;;;;;;7370061;19;20018;-77
2022/06/10 08:55:50;;;;;;;11.15;2.03;;;21.80;55.40;;;;;;7369908;19;20077;-77
2022/06/10 08:58:24;;;;;;;3.65;1.15;;;21.80;54.50;;;;;;7368368;19;20097;-76
2022/06/10 09:00:56;;;;;;;4.97;1.27;;;21.90;55.00;;;;;;7369230;19;20128;-76
2022/06/10 09:03:37;;;;;;;4.03;1.02;;;22.10;55.10;;;;;;7368545;19;20047;-76
2022/06/10 09:06:09;;;;;;;5.30;0.95;;;22.00;54.30;;;;;;7370034;19;20018;-76
2022/06/10 09:08:43;;;;;;;6.18;1.20;;;21.80;53.20;;;;;;7368573;19;20011;-77
2022/06/10 09:11:21;;;;;;;4.20;1.10;;;21.80;54.20;;;;;;7393336;19;20014;-77
2022/06/10 09:13:53;;;;;;;7.45;1.38;;;21.90;54.00;;;;;;7369411;19;20509;-76
2022/06/10 09:16:26;;;;;;;5.38;1.00;;;21.70;55.00;;;;;;7367577;19;20032;-78
2022/06/10 09:19:08;;;;;;;6.38;1.33;;;21.80;55.50;;;;;;7369737;19;20461;-78
2022/06/10 09:21:44;;;;;;;6.43;1.20;;;21.90;55.10;;;;;;7365266;19;20101;-77
2022/06/10 09:24:19;;;;;;;4.38;1.13;;;22.00;54.10;;;;;;7364274;19;20350;-78
2022/06/10 09:26:57;;;;;;;8.82;1.58;;;22.00;54.70;;;;;;7366728;19;20026;-76
2022/06/10 09:29:26;;;;;;;8.98;1.45;;;22.00;54.70;;;;;;7387888;19;20089;-77
2022/06/10 09:32:01;;;;;;;9.43;1.85;;;21.90;55.00;;;;;;7367919;19;20018;-78
2022/06/10 09:34:42;;;;;;;4.55;1.60;;;22.00;55.40;;;;;;7367721;19;20124;-75
2022/06/10 09:37:20;;;;;;;9.57;1.50;;;21.90;55.30;;;;;;7365420;19;20089;-76
2022/06/10 09:42:53;;;;;;;9.23;1.27;;;22.00;55.60;;;;;;7365645;19;20011;-75
2022/06/10 09:45:27;;;;;;;6.63;1.48;;;22.10;55.50;;;;;;7361632;19;20042;-77
2022/06/10 09:48:35;;;;;;;10.80;1.35;;;22.00;55.90;;;;;;7363355;19;20063;-76
2022/06/10 09:51:14;;;;;;;5.55;1.50;;;22.00;55.50;;;;;;7365313;19;20010;-76
2022/06/10 09:54:03;;;;;;;4.93;1.35;;;22.20;55.90;;;;;;7365632;19;20018;-77
2022/06/10 09:56:51;;;;;;;10.10;1.40;;;22.10;56.30;;;;;;7389188;19;20018;-78
2022/06/10 09:59:28;;;;;;;7.97;1.58;;;22.00;56.80;;;;;;7365317;19;20042;-77
2022/06/10 10:02:04;;;;;;;7.10;1.55;;;22.20;56.70;;;;;;7369798;19;20018;-77
2022/06/10 10:04:59;;;;;;;8.60;1.50;;;22.30;57.00;;;;;;7367793;19;20017;-78
2022/06/10 10:07:41;;;;;;;13.77;2.10;;;22.40;56.40;;;;;;7368208;19;20493;-76
2022/06/10 10:10:23;;;;;;;6.75;1.60;;;22.50;56.50;;;;;;7369077;19;20082;-78
2022/06/10 10:13:14;;;;;;;9.85;1.60;;;22.40;56.50;;;;;;7368274;19;20007;-78
2022/06/10 10:15:49;;;;;;;8.85;1.90;;;22.50;56.50;;;;;;7369121;19;20018;-79
2022/06/10 10:18:47;;;;;;;9.20;1.70;;;22.50;56.40;;;;;;7370594;19;20018;-79
2022/06/10 10:21:20;;;;;;;6.68;2.08;;;22.70;56.30;;;;;;7368231;19;20082;-79
2022/06/10 10:23:55;;;;;;;7.60;1.73;;;22.90;55.50;;;;;;7368421;19;20089;-79
2022/06/10 10:26:27;;;;;;;4.95;1.35;;;23.00;55.60;;;;;;7389182;19;20086;-79
2022/06/10 10:29:01;;;;;;;5.75;1.27;;;23.10;54.70;;;;;;7369534;19;20023;-79
2022/06/10 10:31:32;;;;;;;5.63;1.30;;;23.10;54.40;;;;;;7368775;19;20062;-79
2022/06/10 10:34:05;;;;;;;5.85;1.67;;;23.20;54.30;;;;;;7376387;19;20031;-80
2022/06/10 10:36:47;;;;;;;5.45;1.25;;;23.30;54.50;;;;;;7377202;19;20027;-79
2022/06/10 10:39:27;;;;;;;7.00;1.55;;;23.50;54.40;;;;;;7377795;19;20444;-80
2022/06/10 10:41:59;;;;;;;6.32;1.17;;;23.70;54.30;;;;;;7378404;19;20103;-80
2022/06/10 10:44:38;;;;;;;4.43;1.05;;;23.80;53.50;;;;;;7399687;19;20114;-79
2022/06/10 10:47:20;;;;;;;6.07;1.30;;;24.00;53.30;;;;;;7373244;19;20078;-79
2022/06/10 10:49:51;;;;;;;6.03;1.35;;;24.10;52.80;;;;;;7373885;19;20015;-79
2022/06/10 10:52:22;;;;;;;;;;;24.20;53.20;;;;;;7376607;19;20129;-79
2022/06/10 10:54:57;;;;;;;3.95;1.38;;;24.20;52.50;;;;;;7375032;19;20025;-80
2022/06/10 10:57:31;;;;;;;7.85;1.10;;;24.20;52.70;;;;;;7371664;19;20377;-80
2022/06/10 11:00:33;;;;;;;3.45;1.10;;;24.30;53.00;;;;;;7371571;19;20647;-79
2022/06/10 11:03:03;;;;;;;5.25;1.30;;;24.30;52.30;;;;;;7375445;19;20394;-78
2022/06/10 11:05:37;;;;;;;6.03;1.85;;;24.50;51.80;;;;;;7396359;19;20014;-78
2022/06/10 11:08:19;;;;;;;4.47;1.30;;;24.60;51.80;;;;;;7373334;19;20018;-80
2022/06/10 11:11:02;;;;;;;6.47;1.60;;;24.60;51.40;;;;;;7373069;19;20014;-79
2022/06/10 11:13:50;;;;;;;5.18;1.10;;;24.50;51.90;;;;;;7376016;19;20045;-80
2022/06/10 11:16:44;;;;;;;5.13;1.02;;;24.40;51.50;;;;;;7373139;19;20018;-78
2022/06/10 11:19:28;;;;;;;6.38;1.30;;;24.20;51.90;;;;;;7373375;19;20021;-78
2022/06/10 11:22:20;;;;;;;5.97;1.40;;;24.30;51.60;;;;;;7376759;19;20019;-78
2022/06/10 11:24:51;;;;;;;4.25;1.15;;;24.10;52.00;;;;;;7376027;19;21888;-79
2022/06/10 11:27:31;;;;;;;6.78;1.55;;;24.30;52.20;;;;;;7376606;19;20011;-80
2022/06/10 11:30:08;;;;;;;3.13;1.13;;;24.10;52.70;;;;;;7375149;19;20094;-80
2022/06/10 11:32:41;;;;;;;6.43;1.48;;;24.10;52.60;;;;;;7374910;19;20018;-78
2022/06/10 11:35:25;;;;;;;4.50;1.48;;;24.20;53.10;;;;;;7396639;19;20113;-78
2022/06/10 11:37:57;;;;;;;3.22;1.20;;;24.00;52.70;;;;;;7376231;19;20014;-79
2022/06/10 11:40:28;;;;;;;8.35;1.60;;;23.90;53.30;;;;;;7374110;19;20019;-79
2022/06/10 11:43:04;;;;;;;7.50;1.40;;;24.00;52.50;;;;;;7374212;19;20022;-77
2022/06/10 11:45:39;;;;;;;3.83;1.30;;;24.00;52.90;;;;;;7371139;19;20006;-79
2022/06/10 11:55:03;;;;;;;5.78;1.70;;;23.90;53.00;;;;;;7398877;19;20002;-79
2022/06/10 12:00:27;;;;;;;5.70;1.20;;;23.90;53.70;;;;;;7374075;19;20018;-81
2022/06/10 12:03:08;;;;;;;7.13;1.33;;;24.10;52.70;;;;;;7372311;19;20023;-78
2022/06/10 12:05:52;;;;;;;2.88;1.30;;;24.20;52.30;;;;;;7372653;19;20022;-78
2022/06/10 12:08:33;;;;;;;5.40;1.20;;;24.20;52.60;;;;;;7396497;19;20010;-79
2022/06/10 12:11:07;;;;;;;7.05;1.83;;;24.30;52.90;;;;;;7374457;19;20043;-80
2022/06/10 12:13:41;;;;;;;4.32;1.27;;;24.30;52.90;;;;;;7371335;19;20198;-78
2022/06/10 12:16:12;;;;;;;8.18;1.35;;;24.40;52.60;;;;;;7369424;19;20076;-79
2022/06/10 12:18:47;;;;;;;6.15;1.58;;;24.40;52.60;;;;;;7371539;19;20019;-78
2022/06/10 12:21:19;;;;;;;5.45;1.00;;;24.50;52.20;;;;;;7372156;19;20016;-78
2022/06/10 12:23:49;;;;;;;4.20;1.40;;;24.60;52.10;;;;;;7372080;19;20622;-79
2022/06/10 12:26:38;;;;;;;4.63;1.33;;;24.70;52.10;;;;;;7390899;19;20023;-79
2022/06/10 12:29:18;;;;;;;4.53;1.20;;;24.80;51.40;;;;;;7372611;19;20101;-79
2022/06/10 12:31:55;;;;;;;5.30;1.40;;;24.80;51.90;;;;;;7371260;19;20011;-79
2022/06/10 12:34:36;;;;;;;10.10;1.55;;;25.00;51.70;;;;;;7372099;19;20431;-80
2022/06/10 12:37:08;;;;;;;7.57;1.38;;;25.00;51.30;;;;;;7371347;19;20019;-79
2022/06/10 12:39:50;;;;;;;5.03;1.45;;;25.20;50.80;;;;;;7374285;19;20445;-78
2022/06/10 12:42:22;;;;;;;5.32;1.38;;;25.20;50.60;;;;;;7373380;19;20014;-81
2022/06/10 12:45:00;;;;;;;7.32;1.42;;;25.20;50.80;;;;;;7371621;19;20122;-78
2022/06/10 12:47:36;;;;;;;6.80;1.45;;;25.10;51.30;;;;;;7392542;19;20037;-78
2022/06/10 12:50:18;;;;;;;8.77;1.52;;;25.10;51.60;;;;;;7369879;19;20025;-79
2022/06/10 12:53:15;;;;;;;2.70;1.20;;;25.10;51.40;;;;;;7372597;19;20037;-78
2022/06/10 12:55:51;;;;;;;4.88;1.27;;;25.20;51.20;;;;;;7367099;19;20082;-79
2022/06/10 12:58:49;;;;;;;3.13;1.05;;;25.10;50.80;;;;;;7370247;19;20097;-78
2022/06/10 13:01:23;;;;;;;5.18;1.40;;;24.80;51.20;;;;;;7370712;19;20438;-78
2022/06/10 13:03:57;;;;;;;4.38;1.20;;;24.70;51.80;;;;;;7369703;19;20080;-78
2022/06/10 13:06:51;;;;;;;6.35;1.33;;;24.70;51.70;;;;;;7366703;19;20070;-78
2022/06/10 13:09:31;;;;;;;5.65;1.08;;;24.70;52.10;;;;;;7371320;19;20015;-78
2022/06/10 13:12:03;;;;;;;6.80;1.63;;;24.80;51.90;;;;;;7370525;19;20120;-79
2022/06/10 13:14:47;;;;;;;8.80;1.33;;;24.70;52.20;;;;;;7392668;19;20021;-78
2022/06/10 13:17:28;;;;;;;8.57;1.40;;;24.70;52.40;;;;;;7369774;19;20014;-78
2022/06/10 13:20:20;;;;;;;6.38;1.73;;;24.70;51.90;;;;;;7371522;19;20086;-78
2022/06/10 13:23:12;;;;;;;8.93;1.50;;;24.60;52.30;;;;;;7368242;19;20018;-79
2022/06/10 13:25:41;;;;;;;6.82;1.63;;;24.70;52.00;;;;;;7367983;19;20494;-78
2022/06/10 13:28:23;;;;;;;5.65;1.30;;;24.70;51.70;;;;;;7370716;19;20020;-78
2022/06/10 13:30:53;;;;;;;7.60;1.45;;;24.80;52.00;;;;;;7368655;19;20018;-78
2022/06/10 13:33:22;;;;;;;3.97;1.27;;;24.80;52.50;;;;;;7368128;19;20058;-78
2022/06/10 13:35:56;;;;;;;4.85;1.55;;;24.70;52.20;;;;;;7369022;19;20039;-79
2022/06/10 13:38:30;;;;;;;5.65;1.05;;;24.70;52.50;;;;;;7387138;19;20018;-79
2022/06/10 13:43:44;;;;;;;4.60;1.20;;;24.80;52.10;;;;;;7368227;19;20014;-78
2022/06/10 13:46:17;;;;;;;5.25;1.48;;;24.70;52.30;;;;;;7368321;19;20705;-77
2022/06/10 13:48:45;;;;;;;6.18;1.35;;;24.60;52.40;;;;;;7365903;19;20023;-76
2022/06/10 13:51:39;;;;;;;5.45;1.50;;;24.60;52.40;;;;;;7368665;19;20150;-77
2022/06/10 13:54:17;;;;;;;6.10;1.45;;;24.60;52.70;;;;;;7365298;19;20028;-78
2022/06/10 13:56:46;;;;;;;4.65;1.40;;;24.60;53.20;;;;;;7363938;19;20036;-78